createdAt,value
2018-08-20T00:00:38.561Z,66.09
2018-08-20T00:03:09.057Z,66.56
2018-08-20T00:05:40.275Z,65.98
2018-08-20T00:08:10.886Z,66.50
2018-08-20T00:10:41.646Z,66.83
2018-08-20T00:13:12.025Z,66.67
2018-08-20T00:15:42.506Z,66.56
2018-08-20T00:18:18.277Z,66.72
2018-08-20T00:20:48.733Z,66.44
2018-08-20T00:23:19.160Z,66.23
2018-08-20T00:25:49.579Z,66.31
2018-08-20T00:28:19.957Z,66.02
2018-08-20T00:30:50.329Z,66.44
2018-08-20T00:33:20.733Z,66.73
2018-08-20T00:35:51.226Z,66.17
2018-08-20T00:38:21.654Z,66.25
2018-08-20T00:40:52.095Z,66.26
2018-08-20T00:43:22.891Z,66.13
2018-08-20T00:45:53.362Z,66.12
2018-08-20T00:48:24.171Z,65.80
2018-08-20T00:50:54.657Z,66.33
2018-08-20T00:53:25.151Z,66.55
2018-08-20T00:55:55.579Z,66.35
2018-08-20T00:58:25.985Z,66.91
2018-08-20T01:00:57.143Z,67.19
2018-08-20T01:03:27.625Z,66.78
2018-08-20T01:05:58.131Z,67.42
2018-08-20T01:08:28.553Z,67.40
2018-08-20T01:10:59.157Z,66.76
2018-08-20T01:17:06.535Z,67.46
2018-08-20T01:19:37.030Z,67.61
2018-08-20T01:22:07.659Z,67.72
2018-08-20T01:24:38.129Z,68.00
2018-08-20T01:27:08.626Z,67.89
2018-08-20T01:33:50.093Z,68.27
2018-08-20T01:36:20.513Z,68.46
2018-08-20T01:38:50.953Z,68.67
2018-08-20T01:41:21.380Z,69.04
2018-08-20T01:43:51.843Z,69.44
2018-08-20T01:46:22.471Z,69.11
2018-08-20T01:48:53.003Z,69.60
2018-08-20T01:51:23.459Z,68.70
2018-08-20T01:53:53.935Z,68.92
2018-08-20T01:56:24.411Z,69.18
2018-08-20T02:02:31.329Z,69.57
2018-08-20T02:05:01.727Z,69.05
2018-08-20T02:07:32.115Z,69.25
2018-08-20T02:10:02.657Z,70.17
2018-08-20T02:12:33.971Z,70.16
2018-08-20T02:15:05.931Z,70.47
2018-08-20T02:17:36.345Z,70.87
2018-08-20T02:20:06.941Z,70.93
2018-08-20T02:22:37.609Z,71.08
2018-08-20T02:25:08.443Z,71.09
2018-08-20T02:27:39.041Z,71.31
2018-08-20T02:30:09.688Z,71.74
2018-08-20T02:32:40.105Z,71.66
2018-08-20T02:35:10.807Z,71.06
2018-08-20T02:37:47.635Z,70.97
2018-08-20T02:40:18.971Z,71.50
2018-08-20T02:42:50.424Z,71.43
2018-08-20T02:45:20.899Z,70.87
2018-08-20T02:47:51.769Z,71.80
2018-08-20T02:50:22.577Z,71.75
2018-08-20T02:53:46.780Z,71.41
2018-08-20T02:56:17.142Z,72.13
2018-08-20T02:58:47.880Z,72.38
2018-08-20T03:01:18.270Z,73.05
2018-08-20T03:03:48.800Z,73.10
2018-08-20T03:06:19.478Z,72.69
2018-08-20T03:08:50.067Z,72.70
2018-08-20T03:11:20.574Z,72.67
2018-08-20T03:13:51.965Z,72.76
2018-08-20T03:16:23.076Z,73.59
2018-08-20T03:18:54.372Z,73.11
2018-08-20T03:21:24.982Z,73.48
2018-08-20T03:23:55.488Z,73.38
2018-08-20T03:26:25.978Z,73.29
2018-08-20T03:28:57.068Z,72.94
2018-08-20T03:31:27.568Z,72.52
2018-08-20T03:33:57.979Z,71.84
2018-08-20T03:36:28.525Z,72.56
2018-08-20T03:38:59.126Z,72.55
2018-08-20T03:48:42.224Z,72.63
2018-08-20T03:51:12.718Z,72.68
2018-08-20T03:53:43.584Z,72.79
2018-08-20T03:56:14.477Z,73.06
2018-08-20T03:58:44.878Z,72.77
2018-08-20T04:01:15.520Z,73.17
2018-08-20T04:03:46.090Z,73.46
2018-08-20T04:06:17.284Z,73.31
2018-08-20T04:08:47.752Z,73.67
2018-08-20T04:11:18.294Z,73.88
2018-08-20T04:13:48.818Z,74.09
2018-08-20T04:16:20.084Z,74.04
2018-08-20T04:18:54.892Z,74.32
2018-08-20T04:21:25.342Z,73.75
2018-08-20T04:27:32.156Z,74.10
2018-08-20T04:30:02.662Z,73.79
2018-08-20T04:32:33.220Z,73.73
2018-08-20T04:35:04.592Z,73.91
2018-08-20T04:37:35.015Z,73.73
2018-08-20T04:40:06.052Z,74.71
2018-08-20T04:42:37.240Z,74.17
2018-08-20T04:45:08.714Z,74.69
2018-08-20T04:47:39.326Z,74.79
2018-08-20T04:50:11.607Z,74.89
2018-08-20T04:52:42.829Z,74.69
2018-08-20T04:55:13.392Z,74.17
2018-08-20T04:57:43.790Z,73.49
2018-08-20T05:00:14.273Z,72.98
2018-08-20T05:02:44.846Z,72.52
2018-08-20T05:05:50.994Z,72.09
2018-08-20T05:08:21.809Z,71.82
2018-08-20T05:10:52.782Z,71.67
2018-08-20T05:13:23.270Z,71.33
2018-08-20T05:15:54.503Z,71.49
2018-08-20T05:18:25.250Z,71.48
2018-08-20T05:20:56.718Z,68.54
2018-08-20T05:23:28.088Z,64.65
2018-08-20T05:25:59.004Z,61.44
2018-08-20T05:28:29.520Z,58.03
2018-08-20T05:31:00.751Z,54.66
2018-08-20T05:37:07.450Z,50.79
2018-08-20T05:39:38.400Z,49.60
2018-08-20T05:42:09.585Z,48.66
2018-08-20T05:44:40.037Z,47.97
2018-08-20T05:47:10.462Z,46.56
2018-08-20T05:53:16.776Z,43.56
2018-08-20T05:55:47.020Z,42.25
2018-08-20T05:58:17.326Z,41.89
2018-08-20T06:00:48.416Z,40.44
2018-08-20T06:03:18.581Z,38.65
2018-08-20T06:05:48.779Z,39.67
2018-08-20T06:08:19.257Z,39.71
2018-08-20T06:10:49.389Z,38.87
2018-08-20T06:13:19.563Z,39.07
2018-08-20T06:15:49.939Z,39.39
2018-08-20T06:18:20.149Z,38.96
2018-08-20T06:20:50.821Z,38.57
2018-08-20T06:23:21.063Z,37.93
2018-08-20T06:33:03.625Z,38.46
2018-08-20T06:35:33.971Z,38.53
2018-08-20T06:38:04.541Z,39.29
2018-08-20T06:40:35.016Z,38.17
2018-08-20T06:43:06.326Z,38.82
2018-08-20T06:49:13.613Z,38.11
2018-08-20T06:51:44.143Z,37.60
2018-08-20T06:54:14.623Z,37.56
2018-08-20T06:56:45.396Z,36.67
2018-08-20T06:59:15.812Z,37.58
2018-08-20T07:01:46.692Z,37.70
2018-08-20T07:04:17.093Z,37.29
2018-08-20T07:06:47.181Z,36.09
2018-08-20T07:09:17.269Z,35.86
2018-08-20T07:11:47.736Z,36.23
2018-08-20T07:14:18.451Z,37.18
2018-08-20T07:16:48.907Z,36.17
2018-08-20T07:19:20.777Z,35.16
2018-08-20T07:21:51.113Z,36.06
2018-08-20T07:24:21.229Z,36.50
2018-08-20T07:26:51.667Z,36.01
2018-08-20T07:29:54.773Z,36.13
2018-08-20T07:32:25.305Z,37.13
2018-08-20T07:34:55.848Z,38.02
2018-08-20T07:37:26.339Z,36.30
2018-08-20T07:39:57.173Z,37.99
2018-08-20T07:42:27.351Z,37.13
2018-08-20T07:44:58.254Z,37.82
2018-08-20T07:47:29.119Z,41.18
2018-08-20T07:49:59.529Z,40.99
2018-08-20T07:52:30.027Z,42.57
2018-08-20T07:55:00.450Z,43.20
2018-08-20T07:57:31.933Z,43.64
2018-08-20T08:00:02.316Z,42.41
2018-08-20T08:02:33.234Z,41.94
2018-08-20T08:05:04.049Z,42.27
2018-08-20T08:07:34.597Z,41.21
2018-08-20T08:10:10.030Z,40.55
2018-08-20T08:12:40.902Z,43.06
2018-08-20T08:15:13.942Z,43.14
2018-08-20T08:17:45.675Z,43.02
2018-08-20T08:20:16.491Z,42.38
2018-08-20T08:30:00.428Z,43.20
2018-08-20T08:32:30.913Z,45.22
2018-08-20T08:35:01.434Z,43.58
2018-08-20T08:37:31.816Z,44.16
2018-08-20T08:40:02.382Z,45.27
2018-08-20T08:42:33.212Z,44.61
2018-08-20T08:45:04.831Z,44.66
2018-08-20T08:47:36.103Z,44.96
2018-08-20T08:50:07.049Z,45.54
2018-08-20T08:52:38.213Z,43.39
2018-08-20T08:55:09.579Z,43.66
2018-08-20T08:57:40.480Z,44.78
2018-08-20T09:00:19.130Z,45.40
2018-08-20T09:02:50.372Z,45.35
2018-08-20T09:05:21.684Z,44.13
2018-08-20T09:07:52.284Z,44.30
2018-08-20T09:10:23.172Z,44.98
2018-08-20T09:12:53.650Z,43.91
2018-08-20T09:15:24.246Z,43.71
2018-08-20T09:17:54.766Z,44.35
2018-08-20T09:20:26.987Z,43.22
2018-08-20T09:22:57.672Z,43.33
2018-08-20T09:25:28.375Z,43.55
2018-08-20T09:27:59.198Z,42.05
2018-08-20T09:30:29.636Z,42.44
2018-08-20T09:33:00.612Z,42.23
2018-08-20T09:35:31.061Z,41.98
2018-08-20T09:38:01.464Z,41.39
2018-08-20T09:40:31.964Z,41.74
2018-08-20T09:43:02.458Z,41.27
2018-08-20T09:45:32.934Z,42.33
2018-08-20T09:48:03.336Z,42.23
2018-08-20T09:50:33.870Z,41.79
2018-08-20T09:53:04.300Z,41.07
2018-08-20T09:55:35.558Z,40.66
2018-08-20T09:58:48.708Z,41.91
2018-08-20T10:01:19.138Z,41.42
2018-08-20T10:03:50.084Z,41.42
2018-08-20T10:06:20.764Z,41.57
2018-08-20T10:08:51.381Z,42.47
2018-08-20T10:11:21.925Z,41.20
2018-08-20T10:13:52.585Z,41.14
2018-08-20T10:16:23.015Z,42.53
2018-08-20T10:18:53.434Z,41.02
2018-08-20T10:21:24.007Z,40.26
2018-08-20T10:23:54.477Z,39.46
2018-08-20T10:26:24.977Z,39.78
2018-08-20T10:28:55.461Z,40.16
2018-08-20T10:31:25.876Z,39.94
2018-08-20T10:33:56.179Z,40.46
2018-08-20T10:36:27.005Z,40.25
2018-08-20T10:38:57.577Z,39.31
2018-08-20T10:41:27.981Z,40.00
2018-08-20T10:43:58.463Z,40.00
2018-08-20T10:46:29.381Z,40.24
2018-08-20T10:48:59.533Z,38.37
2018-08-20T10:51:29.968Z,39.29
2018-08-20T10:54:00.593Z,38.86
2018-08-20T10:56:31.211Z,37.83
2018-08-20T10:59:01.671Z,38.07
2018-08-20T11:01:31.741Z,38.36
2018-08-20T11:04:02.223Z,37.52
2018-08-20T11:06:32.431Z,37.04
2018-08-20T11:09:02.550Z,36.61
2018-08-20T11:11:32.700Z,35.35
2018-08-20T11:14:02.759Z,34.00
2018-08-20T11:16:32.945Z,34.12
2018-08-20T11:19:03.060Z,34.89
2018-08-20T11:21:33.267Z,35.26
2018-08-20T11:24:03.643Z,34.24
2018-08-20T11:26:34.777Z,34.48
2018-08-20T11:29:05.156Z,33.71
2018-08-20T11:31:35.991Z,34.15
2018-08-20T11:34:06.886Z,34.37
2018-08-20T11:36:37.105Z,33.17
2018-08-20T11:39:08.428Z,34.92
2018-08-20T11:41:39.379Z,33.37
2018-08-20T11:44:09.452Z,34.74
2018-08-20T11:46:39.531Z,34.77
2018-08-20T11:49:10.067Z,35.38
2018-08-20T11:51:40.312Z,34.24
2018-08-20T11:54:10.964Z,34.43
2018-08-20T11:56:41.057Z,33.83
2018-08-20T11:59:11.202Z,33.71
2018-08-20T12:01:41.489Z,35.18
2018-08-20T12:04:11.563Z,36.02
2018-08-20T12:06:41.705Z,35.65
2018-08-20T12:09:11.823Z,36.03
2018-08-20T12:11:41.929Z,35.03
2018-08-20T12:14:12.703Z,35.78
2018-08-20T12:16:43.143Z,37.07
2018-08-20T12:19:13.515Z,36.01
2018-08-20T12:21:43.703Z,35.79
2018-08-20T12:24:13.850Z,35.97
2018-08-20T12:26:44.123Z,34.81
2018-08-20T12:29:14.486Z,33.24
2018-08-20T12:31:44.579Z,31.63
2018-08-20T12:34:14.692Z,32.71
2018-08-20T12:36:45.013Z,34.41
2018-08-20T12:39:15.101Z,32.98
2018-08-20T12:41:45.226Z,33.24
2018-08-20T12:44:15.334Z,33.29
2018-08-20T12:46:45.477Z,32.97
2018-08-20T12:52:50.851Z,33.25
2018-08-20T12:55:20.940Z,32.80
2018-08-20T12:57:51.041Z,32.75
2018-08-20T13:00:21.278Z,34.75
2018-08-20T13:02:51.394Z,33.61
2018-08-20T13:05:21.658Z,33.09
2018-08-20T13:07:51.715Z,33.29
2018-08-20T13:10:21.798Z,32.89
2018-08-20T13:12:51.959Z,32.50
2018-08-20T13:15:22.144Z,32.13
2018-08-20T13:17:52.598Z,31.50
2018-08-20T13:20:22.687Z,31.14
2018-08-20T13:22:52.760Z,31.70
2018-08-20T13:25:22.886Z,31.06
2018-08-20T13:27:53.758Z,31.11
2018-08-20T13:30:24.488Z,29.83
2018-08-20T13:32:54.590Z,29.65
2018-08-20T13:35:24.924Z,30.48
2018-08-20T13:37:55.032Z,30.75
2018-08-20T13:40:25.157Z,30.66
2018-08-20T13:42:55.376Z,30.49
2018-08-20T13:45:25.518Z,31.43
2018-08-20T13:47:56.342Z,31.66
2018-08-20T13:50:26.483Z,32.33
2018-08-20T13:52:56.980Z,32.49
2018-08-20T13:55:27.440Z,32.80
2018-08-20T13:57:57.564Z,32.70
2018-08-20T14:00:27.666Z,31.83
2018-08-20T14:02:57.945Z,33.08
2018-08-20T14:05:28.094Z,31.23
2018-08-20T14:07:58.215Z,30.44
2018-08-20T14:10:28.374Z,30.05
2018-08-20T14:12:58.483Z,31.27
2018-08-20T14:15:29.106Z,32.69
2018-08-20T14:17:59.950Z,30.94
2018-08-20T14:20:30.420Z,30.80
2018-08-20T14:23:00.600Z,31.48
2018-08-20T14:25:30.644Z,32.56
2018-08-20T14:28:00.898Z,32.02
2018-08-20T14:30:31.247Z,31.68
2018-08-20T14:33:01.534Z,31.57
2018-08-20T14:35:31.614Z,31.06
2018-08-20T14:38:01.778Z,30.87
2018-08-20T14:40:32.383Z,30.55
2018-08-20T14:43:02.524Z,30.10
2018-08-20T14:45:37.803Z,30.72
2018-08-20T14:48:08.972Z,31.03
2018-08-20T14:50:39.435Z,29.55
2018-08-20T14:53:09.704Z,29.93
2018-08-20T14:55:39.862Z,29.88
2018-08-20T14:58:10.844Z,29.01
2018-08-20T15:00:41.192Z,30.09
2018-08-20T15:03:11.302Z,30.77
2018-08-20T15:05:41.594Z,30.18
2018-08-20T15:08:12.196Z,30.02
2018-08-20T15:10:43.198Z,30.44
2018-08-20T15:13:13.574Z,30.72
2018-08-20T15:15:43.797Z,28.98
2018-08-20T15:18:13.887Z,29.10
2018-08-20T15:20:44.054Z,29.31
2018-08-20T15:23:14.486Z,29.35
2018-08-20T15:25:44.591Z,28.22
2018-08-20T15:28:14.656Z,28.61
2018-08-20T15:30:45.476Z,29.91
2018-08-20T15:33:15.521Z,28.57
2018-08-20T15:35:45.711Z,28.59
2018-08-20T15:38:15.852Z,29.64
2018-08-20T15:40:45.901Z,28.69
2018-08-20T15:43:15.947Z,28.46
2018-08-20T15:45:46.409Z,28.91
2018-08-20T15:48:16.487Z,28.99
2018-08-20T15:50:47.632Z,29.41
2018-08-20T15:53:17.703Z,29.43
2018-08-20T15:55:47.753Z,30.23
2018-08-20T15:58:17.829Z,30.05
2018-08-20T16:00:47.923Z,29.65
2018-08-20T16:03:18.117Z,29.32
2018-08-20T16:05:48.635Z,30.06
2018-08-20T16:08:18.763Z,31.51
2018-08-20T16:10:48.855Z,31.34
2018-08-20T16:13:18.907Z,30.36
2018-08-20T16:15:49.077Z,31.92
2018-08-20T16:18:19.223Z,32.69
2018-08-20T16:20:49.273Z,31.36
2018-08-20T16:23:21.711Z,34.00
2018-08-20T16:26:48.592Z,33.01
2018-08-20T16:29:20.385Z,33.25
2018-08-20T16:31:51.676Z,32.38
2018-08-20T16:34:21.871Z,32.91
2018-08-20T16:36:52.019Z,32.52
2018-08-20T16:39:22.429Z,33.02
2018-08-20T16:41:52.737Z,32.99
2018-08-20T16:44:23.219Z,33.51
2018-08-20T16:46:53.353Z,33.90
2018-08-20T16:49:24.203Z,33.21
2018-08-20T16:51:54.594Z,34.16
2018-08-20T16:54:26.312Z,33.58
2018-08-20T16:56:56.374Z,34.02
2018-08-20T16:59:26.413Z,33.20
2018-08-20T17:01:56.621Z,33.25
2018-08-20T17:04:39.211Z,33.34
2018-08-20T17:07:10.230Z,34.70
2018-08-20T17:09:40.352Z,34.50
2018-08-20T17:12:10.769Z,34.93
2018-08-20T17:14:40.955Z,35.37
2018-08-20T17:17:11.285Z,36.22
2018-08-20T17:19:44.454Z,37.13
2018-08-20T17:22:17.778Z,36.17
2018-08-20T17:24:54.866Z,36.91
2018-08-20T17:27:25.436Z,37.29
2018-08-20T17:29:57.179Z,35.97
2018-08-20T17:32:27.667Z,37.61
2018-08-20T17:38:33.390Z,37.19
2018-08-20T17:41:03.948Z,37.55
2018-08-20T17:43:34.897Z,37.64
2018-08-20T17:46:05.370Z,38.54
2018-08-20T17:48:35.558Z,39.52
2018-08-20T17:51:06.147Z,39.22
2018-08-20T17:53:52.512Z,38.92
2018-08-20T17:56:23.364Z,39.43
2018-08-20T17:59:00.034Z,40.05
2018-08-20T18:01:33.526Z,39.92
2018-08-20T18:04:04.261Z,40.58
2018-08-20T18:06:50.004Z,40.15
2018-08-20T18:09:23.983Z,40.73
2018-08-20T18:11:55.935Z,40.68
2018-08-20T18:14:27.205Z,41.69
2018-08-20T18:16:57.637Z,41.58
2018-08-20T18:19:28.239Z,42.29
2018-08-20T18:21:58.685Z,42.91
2018-08-20T18:24:29.211Z,44.05
2018-08-20T18:26:59.637Z,45.18
2018-08-20T18:29:30.026Z,46.16
2018-08-20T18:32:02.883Z,46.16
2018-08-20T18:34:33.368Z,46.91
2018-08-20T18:37:04.702Z,46.37
2018-08-20T18:39:35.273Z,46.98
2018-08-20T18:42:07.815Z,47.72
2018-08-20T18:44:38.414Z,47.33
2018-08-20T18:47:11.420Z,47.49
2018-08-20T18:49:49.558Z,47.73
2018-08-20T18:52:21.047Z,48.42
2018-08-20T18:54:52.915Z,48.56
2018-08-20T18:57:27.892Z,50.15
2018-08-20T19:00:01.860Z,50.81
2018-08-20T19:02:40.172Z,51.08
2018-08-20T19:05:13.852Z,50.30
2018-08-20T19:07:44.902Z,50.15
2018-08-20T19:10:23.512Z,49.14
2018-08-20T19:19:14.026Z,50.72
2018-08-20T19:21:44.419Z,50.29
2018-08-20T19:24:14.824Z,49.75
2018-08-20T19:26:45.327Z,50.12
2018-08-20T19:29:32.486Z,50.82
2018-08-20T19:32:02.947Z,51.13
2018-08-20T19:34:33.342Z,50.54
2018-08-20T19:37:03.880Z,50.49
2018-08-20T19:39:34.820Z,50.04
2018-08-20T19:42:06.162Z,50.35
2018-08-20T19:44:36.628Z,49.71
2018-08-20T19:47:07.021Z,49.30
2018-08-20T19:49:37.691Z,50.35
2018-08-20T19:52:08.692Z,51.12
2018-08-20T19:54:39.418Z,50.54
2018-08-20T19:57:09.848Z,50.75
2018-08-20T19:59:40.289Z,51.03
2018-08-20T20:02:12.878Z,46.92
2018-08-20T20:04:43.652Z,47.90
2018-08-20T20:07:14.527Z,47.09
2018-08-20T20:09:45.278Z,45.75
2018-08-20T20:12:16.066Z,44.66
2018-08-20T20:14:47.636Z,45.91
2018-08-20T20:17:18.204Z,47.30
2018-08-20T20:19:48.632Z,47.39
2018-08-20T20:22:19.018Z,47.12
2018-08-20T20:24:50.051Z,48.26
2018-08-20T20:27:21.157Z,48.12
2018-08-20T20:29:51.648Z,49.00
2018-08-20T20:32:22.484Z,50.53
2018-08-20T20:34:54.405Z,50.93
2018-08-20T20:37:25.027Z,51.85
2018-08-20T20:40:00.853Z,52.05
2018-08-20T20:42:31.866Z,52.09
2018-08-20T20:45:02.327Z,52.25
2018-08-20T20:47:32.792Z,52.64
2018-08-20T20:50:03.211Z,52.21
2018-08-20T20:52:33.791Z,52.47
2018-08-20T20:55:05.044Z,52.77
2018-08-20T20:57:35.504Z,52.02
2018-08-20T21:00:06.915Z,52.05
2018-08-20T21:02:37.722Z,51.18
2018-08-20T21:05:10.942Z,50.95
2018-08-20T21:07:41.343Z,50.88
2018-08-20T21:10:11.815Z,51.03
2018-08-20T21:12:42.216Z,51.51
2018-08-20T21:15:12.738Z,51.37
2018-08-20T21:17:43.502Z,51.69
2018-08-20T21:20:19.921Z,51.69
2018-08-20T21:22:50.227Z,52.10
2018-08-20T21:25:21.009Z,51.79
2018-08-20T21:31:29.227Z,51.47
2018-08-20T21:34:01.843Z,51.42
2018-08-20T21:36:32.845Z,51.84
2018-08-20T21:39:03.283Z,51.56
2018-08-20T21:41:33.680Z,51.44
2018-08-20T21:44:04.229Z,52.01
2018-08-20T21:46:34.623Z,51.84
2018-08-20T21:49:05.683Z,51.88
2018-08-20T21:51:45.678Z,52.68
2018-08-20T21:54:22.177Z,53.26
2018-08-20T22:00:30.548Z,53.01
2018-08-20T22:03:01.815Z,54.44
2018-08-20T22:05:32.253Z,53.98
2018-08-20T22:08:02.664Z,54.35
2018-08-20T22:10:33.814Z,54.40
2018-08-20T22:13:04.373Z,54.63
2018-08-20T22:15:35.558Z,53.81
2018-08-20T22:18:06.420Z,54.48
2018-08-20T22:20:37.221Z,54.25
2018-08-20T22:23:24.948Z,54.91
2018-08-20T22:29:15.214Z,55.39
2018-08-20T22:31:51.596Z,55.11
2018-08-20T22:34:22.016Z,56.05
2018-08-20T22:36:57.217Z,56.05
2018-08-20T22:39:28.722Z,57.24
2018-08-20T22:42:05.668Z,57.30
2018-08-20T22:44:36.144Z,57.34
2018-08-20T22:47:06.543Z,56.77
2018-08-20T22:49:37.006Z,57.41
2018-08-20T22:52:10.793Z,58.29
2018-08-20T22:54:41.602Z,57.87
2018-08-20T22:57:12.106Z,57.91
2018-08-20T22:59:42.513Z,57.55
2018-08-20T23:02:25.125Z,58.20
2018-08-20T23:05:01.021Z,58.35
2018-08-20T23:07:31.812Z,59.09
2018-08-20T23:10:02.177Z,58.41
2018-08-20T23:12:41.137Z,57.91
2018-08-20T23:15:15.706Z,57.88
2018-08-20T23:17:52.077Z,57.05
2018-08-20T23:20:28.915Z,58.16
2018-08-20T23:22:59.647Z,58.61
2018-08-20T23:25:30.631Z,58.29
2018-08-20T23:28:01.080Z,59.07
2018-08-20T23:30:31.451Z,59.49
2018-08-20T23:33:01.879Z,59.15
2018-08-20T23:35:32.717Z,59.97
2018-08-20T23:38:03.067Z,60.04
2018-08-20T23:40:33.521Z,60.26
2018-08-20T23:43:03.979Z,59.66
2018-08-20T23:45:34.729Z,60.77
2018-08-20T23:48:05.310Z,61.00
2018-08-20T23:50:35.683Z,60.87
2018-08-20T23:53:06.109Z,60.81
2018-08-20T23:55:36.835Z,61.28
2018-08-20T23:58:07.309Z,62.22
